sensor_id;sensor_type;location;lat;lon;timestamp;pressure;altitude;pressure_sealevel;temperature;humidity
3178;BME280;38141;42.666;23.344;2023-02-14T00:02:04;96061.38;;;3.12;99.25
3178;BME280;38141;42.666;23.344;2023-02-14T00:04:31;96064.06;;;3.12;99.64
3178;BME280;38141;42.666;23.344;2023-02-14T00:06:58;96053.75;;;3.06;99.66
3178;BME280;38141;42.666;23.344;2023-02-14T00:09:25;96070.38;;;3.17;99.18
3178;BME280;38141;42.666;23.344;2023-02-14T00:11:53;96058.59;;;3.18;98.64
3178;BME280;38141;42.666;23.344;2023-02-14T00:14:20;96057.13;;;3.11;99.33
3178;BME280;38141;42.666;23.344;2023-02-14T00:17:04;96045.00;;;3.14;98.66
3178;BME280;38141;42.666;23.344;2023-02-14T00:19:31;96031.22;;;2.98;98.60
3178;BME280;38141;42.666;23.344;2023-02-14T00:21:59;96056.94;;;3.08;99.65
3178;BME280;38141;42.666;23.344;2023-02-14T00:24:26;96046.47;;;2.98;100.00
3178;BME280;38141;42.666;23.344;2023-02-14T00:26:54;96063.84;;;3.09;100.00
3178;BME280;38141;42.666;23.344;2023-02-14T00:29:23;96049.28;;;3.15;100.00
3178;BME280;38141;42.666;23.344;2023-02-14T00:31:50;96053.09;;;3.23;99.68
3178;BME280;38141;42.666;23.344;2023-02-14T00:34:17;96059.34;;;3.18;99.88
3178;BME280;38141;42.666;23.344;2023-02-14T00:36:45;96036.59;;;3.21;99.89
3178;BME280;38141;42.666;23.344;2023-02-14T00:39:13;96048.63;;;3.32;100.00
3178;BME280;38141;42.666;23.344;2023-02-14T00:41:41;96059.13;;;3.28;100.00
3178;BME280;38141;42.666;23.344;2023-02-14T00:44:10;96043.09;;;3.28;100.00
3178;BME280;38141;42.666;23.344;2023-02-14T00:46:37;96048.34;;;3.33;99.82
3178;BME280;38141;42.666;23.344;2023-02-14T00:49:05;96004.44;;;3.12;99.66
3178;BME280;38141;42.666;23.344;2023-02-14T00:51:31;95988.56;;;2.93;100.00
3178;BME280;38141;42.666;23.344;2023-02-14T00:53:58;96047.13;;;3.39;100.00
3178;BME280;38141;42.666;23.344;2023-02-14T00:56:26;95950.00;;;2.86;99.24
3178;BME280;38141;42.666;23.344;2023-02-14T00:58:53;96025.06;;;3.34;98.83
3178;BME280;38141;42.666;23.344;2023-02-14T01:01:21;95964.22;;;2.95;98.53
3178;BME280;38141;42.666;23.344;2023-02-14T01:03:48;96000.63;;;3.27;98.27
3178;BME280;38141;42.666;23.344;2023-02-14T01:06:15;95929.22;;;2.83;98.10
3178;BME280;38141;42.666;23.344;2023-02-14T01:08:42;96027.19;;;3.45;98.03
3178;BME280;38141;42.666;23.344;2023-02-14T01:11:11;96021.19;;;3.40;98.68
3178;BME280;38141;42.666;23.344;2023-02-14T01:13:38;96041.91;;;3.34;98.95
3178;BME280;38141;42.666;23.344;2023-02-14T01:16:07;95923.31;;;2.72;99.10
3178;BME280;38141;42.666;23.344;2023-02-14T01:18:36;96029.91;;;3.32;99.26
3178;BME280;38141;42.666;23.344;2023-02-14T01:21:11;95924.22;;;2.67;99.55
3178;BME280;38141;42.666;23.344;2023-02-14T01:23:38;95943.97;;;2.80;100.00
3178;BME280;38141;42.666;23.344;2023-02-14T01:26:06;95996.31;;;2.81;100.00
3178;BME280;38141;42.666;23.344;2023-02-14T01:28:34;95994.16;;;3.28;100.00
3178;BME280;38141;42.666;23.344;2023-02-14T01:31:06;96008.03;;;3.30;99.92
3178;BME280;38141;42.666;23.344;2023-02-14T01:33:33;95991.25;;;3.16;99.37
3178;BME280;38141;42.666;23.344;2023-02-14T01:36:01;96004.41;;;3.26;100.00
3178;BME280;38141;42.666;23.344;2023-02-14T01:38:28;95998.44;;;3.29;99.35
3178;BME280;38141;42.666;23.344;2023-02-14T01:40:55;95940.06;;;2.86;99.31
3178;BME280;38141;42.666;23.344;2023-02-14T01:43:22;95980.81;;;3.28;98.84
3178;BME280;38141;42.666;23.344;2023-02-14T01:45:49;95959.28;;;3.10;99.11
3178;BME280;38141;42.666;23.344;2023-02-14T01:48:16;95985.34;;;3.27;98.51
3178;BME280;38141;42.666;23.344;2023-02-14T01:50:45;95948.13;;;3.08;98.37
3178;BME280;38141;42.666;23.344;2023-02-14T01:53:17;95969.19;;;3.32;96.92
3178;BME280;38141;42.666;23.344;2023-02-14T01:55:50;95932.78;;;3.00;98.65
3178;BME280;38141;42.666;23.344;2023-02-14T01:58:20;95956.06;;;3.00;99.61
3178;BME280;38141;42.666;23.344;2023-02-14T02:00:48;95971.75;;;3.15;99.46
3178;BME280;38141;42.666;23.344;2023-02-14T02:03:27;95890.41;;;2.63;99.64
3178;BME280;38141;42.666;23.344;2023-02-14T02:06:00;95884.84;;;2.59;99.27
3178;BME280;38141;42.666;23.344;2023-02-14T02:08:31;95958.69;;;3.13;99.13
3178;BME280;38141;42.666;23.344;2023-02-14T02:11:01;95909.28;;;2.66;98.77
3178;BME280;38141;42.666;23.344;2023-02-14T02:13:28;95971.69;;;3.29;98.08
3178;BME280;38141;42.666;23.344;2023-02-14T02:16:16;95964.47;;;3.29;97.43
3178;BME280;38141;42.666;23.344;2023-02-14T02:18:55;95942.16;;;3.11;98.64
3178;BME280;38141;42.666;23.344;2023-02-14T02:21:52;95968.97;;;3.20;98.54
3178;BME280;38141;42.666;23.344;2023-02-14T02:24:31;95975.72;;;3.18;98.26
3178;BME280;38141;42.666;23.344;2023-02-14T02:27:24;95959.00;;;3.12;100.00
3178;BME280;38141;42.666;23.344;2023-02-14T02:33:42;95941.72;;;3.18;98.74
3178;BME280;38141;42.666;23.344;2023-02-14T02:39:33;95869.91;;;2.72;97.55
3178;BME280;38141;42.666;23.344;2023-02-14T02:42:13;95932.22;;;3.26;97.26
3178;BME280;38141;42.666;23.344;2023-02-14T02:44:51;95889.50;;;2.90;98.02
3178;BME280;38141;42.666;23.344;2023-02-14T02:47:26;95907.84;;;3.05;97.34
3178;BME280;38141;42.666;23.344;2023-02-14T02:50:03;95930.00;;;3.05;97.44
3178;BME280;38141;42.666;23.344;2023-02-14T02:52:52;95925.56;;;3.23;96.81
3178;BME280;38141;42.666;23.344;2023-02-14T02:55:43;95922.44;;;3.21;97.91
3178;BME280;38141;42.666;23.344;2023-02-14T02:58:32;95934.03;;;3.17;96.72
3178;BME280;38141;42.666;23.344;2023-02-14T03:01:05;95929.47;;;3.17;96.36
3178;BME280;38141;42.666;23.344;2023-02-14T03:03:35;95945.81;;;3.16;97.69
3178;BME280;38141;42.666;23.344;2023-02-14T03:06:21;95944.09;;;3.20;97.76
3178;BME280;38141;42.666;23.344;2023-02-14T03:08:49;95938.41;;;3.12;98.26
3178;BME280;38141;42.666;23.344;2023-02-14T03:11:16;95939.44;;;3.03;99.00
3178;BME280;38141;42.666;23.344;2023-02-14T03:14:03;95934.78;;;3.08;99.17
3178;BME280;38141;42.666;23.344;2023-02-14T03:16:34;95938.03;;;3.05;100.00
3178;BME280;38141;42.666;23.344;2023-02-14T03:19:27;95923.22;;;2.99;99.69
3178;BME280;38141;42.666;23.344;2023-02-14T03:21:58;95933.78;;;3.04;100.00
3178;BME280;38141;42.666;23.344;2023-02-14T03:24:29;95912.22;;;3.01;100.00
3178;BME280;38141;42.666;23.344;2023-02-14T03:27:05;95924.72;;;3.14;100.00
3178;BME280;38141;42.666;23.344;2023-02-14T03:29:42;95914.03;;;3.14;99.34
3178;BME280;38141;42.666;23.344;2023-02-14T03:32:14;95895.03;;;3.16;98.10
3178;BME280;38141;42.666;23.344;2023-02-14T03:34:50;95892.59;;;3.05;98.21
3178;BME280;38141;42.666;23.344;2023-02-14T03:37:22;95907.38;;;3.03;100.00
3178;BME280;38141;42.666;23.344;2023-02-14T03:39:58;95911.13;;;3.02;100.00
3178;BME280;38141;42.666;23.344;2023-02-14T03:42:29;95892.34;;;2.93;99.44
3178;BME280;38141;42.666;23.344;2023-02-14T03:44:59;95909.91;;;2.86;100.00
3178;BME280;38141;42.666;23.344;2023-02-14T03:47:30;95904.88;;;2.84;100.00
3178;BME280;38141;42.666;23.344;2023-02-14T03:50:01;95913.34;;;2.86;100.00
3178;BME280;38141;42.666;23.344;2023-02-14T03:52:31;95896.22;;;2.87;100.00
3178;BME280;38141;42.666;23.344;2023-02-14T03:55:02;95803.78;;;1.97;100.00
3178;BME280;38141;42.666;23.344;2023-02-14T03:57:34;95801.94;;;2.20;100.00
3178;BME280;38141;42.666;23.344;2023-02-14T04:00:05;95867.56;;;2.79;100.00
3178;BME280;38141;42.666;23.344;2023-02-14T04:02:35;95871.50;;;2.82;100.00
3178;BME280;38141;42.666;23.344;2023-02-14T04:05:08;95858.88;;;2.74;100.00
3178;BME280;38141;42.666;23.344;2023-02-14T04:07:44;95848.88;;;2.57;100.00
3178;BME280;38141;42.666;23.344;2023-02-14T04:10:14;95864.28;;;2.82;100.00
3178;BME280;38141;42.666;23.344;2023-02-14T04:12:43;95876.16;;;2.90;100.00
3178;BME280;38141;42.666;23.344;2023-02-14T04:15:10;95862.91;;;2.85;100.00
3178;BME280;38141;42.666;23.344;2023-02-14T04:17:37;95782.94;;;1.99;100.00
3178;BME280;38141;42.666;23.344;2023-02-14T04:20:22;95879.97;;;2.75;100.00
3178;BME280;38141;42.666;23.344;2023-02-14T04:22:48;95882.88;;;2.87;99.05
3178;BME280;38141;42.666;23.344;2023-02-14T04:25:18;95883.97;;;2.86;99.53
3178;BME280;38141;42.666;23.344;2023-02-14T04:27:45;95890.72;;;2.84;99.12
3178;BME280;38141;42.666;23.344;2023-02-14T04:30:13;95884.88;;;2.82;99.27
3178;BME280;38141;42.666;23.344;2023-02-14T04:32:42;95840.41;;;2.41;97.87
3178;BME280;38141;42.666;23.344;2023-02-14T04:35:09;95881.13;;;2.83;98.71
3178;BME280;38141;42.666;23.344;2023-02-14T04:37:36;95859.38;;;2.76;97.20
3178;BME280;38141;42.666;23.344;2023-02-14T04:40:04;95853.59;;;2.82;97.35
3178;BME280;38141;42.666;23.344;2023-02-14T04:42:33;95839.91;;;2.75;96.31
3178;BME280;38141;42.666;23.344;2023-02-14T04:45:00;95824.78;;;2.71;95.99
3178;BME280;38141;42.666;23.344;2023-02-14T04:47:26;95868.19;;;2.98;95.26
3178;BME280;38141;42.666;23.344;2023-02-14T04:49:53;95859.91;;;2.86;96.05
3178;BME280;38141;42.666;23.344;2023-02-14T04:52:20;95860.34;;;2.80;96.85
3178;BME280;38141;42.666;23.344;2023-02-14T04:54:47;95843.94;;;2.73;96.27
3178;BME280;38141;42.666;23.344;2023-02-14T04:57:14;95849.00;;;2.74;97.09
3178;BME280;38141;42.666;23.344;2023-02-14T04:59:42;95837.47;;;2.65;97.45
3178;BME280;38141;42.666;23.344;2023-02-14T05:02:09;95821.50;;;2.51;96.71
3178;BME280;38141;42.666;23.344;2023-02-14T05:04:36;95849.44;;;2.67;96.96
3178;BME280;38141;42.666;23.344;2023-02-14T05:07:03;95856.59;;;2.81;97.20
3178;BME280;38141;42.666;23.344;2023-02-14T05:09:29;95854.94;;;2.71;97.84
3178;BME280;38141;42.666;23.344;2023-02-14T05:11:56;95843.59;;;2.65;97.31
3178;BME280;38141;42.666;23.344;2023-02-14T05:14:23;95826.78;;;2.65;97.05
3178;BME280;38141;42.666;23.344;2023-02-14T05:16:51;95829.75;;;2.63;96.07
3178;BME280;38141;42.666;23.344;2023-02-14T05:19:18;95864.06;;;2.92;95.46
3178;BME280;38141;42.666;23.344;2023-02-14T05:21:45;95867.22;;;2.94;94.61
3178;BME280;38141;42.666;23.344;2023-02-14T05:24:11;95853.41;;;3.01;94.64
3178;BME280;38141;42.666;23.344;2023-02-14T05:26:38;95851.38;;;2.98;93.04
3178;BME280;38141;42.666;23.344;2023-02-14T05:29:05;95852.03;;;3.03;92.63
3178;BME280;38141;42.666;23.344;2023-02-14T05:31:32;95860.84;;;3.04;93.28
3178;BME280;38141;42.666;23.344;2023-02-14T05:34:00;95830.97;;;2.80;93.88
3178;BME280;38141;42.666;23.344;2023-02-14T05:36:27;95844.50;;;2.83;94.23
3178;BME280;38141;42.666;23.344;2023-02-14T05:38:54;95863.94;;;2.97;94.26
3178;BME280;38141;42.666;23.344;2023-02-14T05:41:21;95769.06;;;2.33;94.95
3178;BME280;38141;42.666;23.344;2023-02-14T05:43:47;95850.22;;;2.90;94.35
3178;BME280;38141;42.666;23.344;2023-02-14T05:46:14;95825.31;;;2.81;94.48
3178;BME280;38141;42.666;23.344;2023-02-14T05:48:41;95826.63;;;2.92;93.65
3178;BME280;38141;42.666;23.344;2023-02-14T05:51:10;95835.28;;;3.20;91.98
3178;BME280;38141;42.666;23.344;2023-02-14T05:53:37;95847.22;;;3.45;89.37
3178;BME280;38141;42.666;23.344;2023-02-14T05:56:05;95847.72;;;3.55;89.10
3178;BME280;38141;42.666;23.344;2023-02-14T05:58:32;95846.63;;;3.56;87.51
3178;BME280;38141;42.666;23.344;2023-02-14T06:00:59;95839.94;;;3.76;85.94
3178;BME280;38141;42.666;23.344;2023-02-14T06:03:26;95846.31;;;4.23;83.80
3178;BME280;38141;42.666;23.344;2023-02-14T06:05:53;95846.16;;;4.37;81.36
3178;BME280;38141;42.666;23.344;2023-02-14T06:08:21;95829.50;;;4.57;81.65
3178;BME280;38141;42.666;23.344;2023-02-14T06:10:48;95861.16;;;4.64;77.13
3178;BME280;38141;42.666;23.344;2023-02-14T06:13:14;95858.47;;;4.46;77.89
3178;BME280;38141;42.666;23.344;2023-02-14T06:15:41;95870.63;;;4.44;77.42
3178;BME280;38141;42.666;23.344;2023-02-14T06:18:08;95857.50;;;4.17;79.73
3178;BME280;38141;42.666;23.344;2023-02-14T06:20:35;95869.53;;;4.45;79.32
3178;BME280;38141;42.666;23.344;2023-02-14T06:23:02;95845.72;;;4.52;77.61
3178;BME280;38141;42.666;23.344;2023-02-14T06:25:30;95862.91;;;4.77;75.93
3178;BME280;38141;42.666;23.344;2023-02-14T06:27:58;95867.94;;;4.87;74.05
3178;BME280;38141;42.666;23.344;2023-02-14T06:30:26;95864.78;;;5.02;73.60
3178;BME280;38141;42.666;23.344;2023-02-14T06:32:53;95865.06;;;5.09;72.20
3178;BME280;38141;42.666;23.344;2023-02-14T06:35:19;95866.50;;;4.64;73.37
3178;BME280;38141;42.666;23.344;2023-02-14T06:37:46;95840.19;;;4.57;74.65
3178;BME280;38141;42.666;23.344;2023-02-14T06:40:13;95848.88;;;4.80;73.98
3178;BME280;38141;42.666;23.344;2023-02-14T06:42:42;95803.78;;;4.56;73.83
3178;BME280;38141;42.666;23.344;2023-02-14T06:45:09;95827.91;;;4.65;74.44
3178;BME280;38141;42.666;23.344;2023-02-14T06:47:36;95860.66;;;4.96;73.51
3178;BME280;38141;42.666;23.344;2023-02-14T06:50:03;95859.09;;;5.04;76.17
3178;BME280;38141;42.666;23.344;2023-02-14T06:52:30;95859.25;;;4.99;74.33
3178;BME280;38141;42.666;23.344;2023-02-14T06:54:57;95848.00;;;5.22;73.22
3178;BME280;38141;42.666;23.344;2023-02-14T06:57:24;95826.34;;;4.72;74.27
3178;BME280;38141;42.666;23.344;2023-02-14T06:59:52;95842.47;;;5.19;73.72
3178;BME280;38141;42.666;23.344;2023-02-14T07:02:19;95848.47;;;5.24;73.32
3178;BME280;38141;42.666;23.344;2023-02-14T07:04:46;95849.44;;;5.20;73.10
3178;BME280;38141;42.666;23.344;2023-02-14T07:07:12;95839.06;;;5.01;74.21
3178;BME280;38141;42.666;23.344;2023-02-14T07:09:39;95842.25;;;4.86;76.35
3178;BME280;38141;42.666;23.344;2023-02-14T07:12:13;95836.88;;;4.95;76.27
3178;BME280;38141;42.666;23.344;2023-02-14T07:14:40;95836.28;;;4.63;78.73
3178;BME280;38141;42.666;23.344;2023-02-14T07:17:13;95836.72;;;4.74;81.44
3178;BME280;38141;42.666;23.344;2023-02-14T07:19:40;95846.50;;;4.70;82.27
3178;BME280;38141;42.666;23.344;2023-02-14T07:22:07;95843.97;;;4.82;82.67
3178;BME280;38141;42.666;23.344;2023-02-14T07:24:34;95835.31;;;4.42;85.09
3178;BME280;38141;42.666;23.344;2023-02-14T07:27:00;95825.22;;;4.39;87.71
3178;BME280;38141;42.666;23.344;2023-02-14T07:29:27;95827.91;;;4.30;89.23
3178;BME280;38141;42.666;23.344;2023-02-14T07:31:54;95836.72;;;4.31;91.85
3178;BME280;38141;42.666;23.344;2023-02-14T07:34:22;95850.88;;;4.23;94.53
3178;BME280;38141;42.666;23.344;2023-02-14T07:36:49;95820.59;;;3.88;98.63
3178;BME280;38141;42.666;23.344;2023-02-14T07:39:15;95842.53;;;4.07;100.00
3178;BME280;38141;42.666;23.344;2023-02-14T07:41:42;95851.94;;;4.04;100.00
3178;BME280;38141;42.666;23.344;2023-02-14T07:44:09;95840.63;;;4.08;100.00
3178;BME280;38141;42.666;23.344;2023-02-14T07:46:36;95861.91;;;4.21;100.00
3178;BME280;38141;42.666;23.344;2023-02-14T07:49:03;95856.56;;;4.21;100.00
3178;BME280;38141;42.666;23.344;2023-02-14T07:51:31;95864.09;;;4.11;100.00
3178;BME280;38141;42.666;23.344;2023-02-14T07:53:57;95840.22;;;3.75;100.00
3178;BME280;38141;42.666;23.344;2023-02-14T07:56:24;95864.22;;;3.97;100.00
3178;BME280;38141;42.666;23.344;2023-02-14T07:58:51;95866.59;;;3.98;100.00
3178;BME280;38141;42.666;23.344;2023-02-14T08:01:18;95872.75;;;4.08;100.00
3178;BME280;38141;42.666;23.344;2023-02-14T08:03:45;95873.03;;;3.97;100.00
3178;BME280;38141;42.666;23.344;2023-02-14T08:06:14;95867.84;;;3.92;100.00
3178;BME280;38141;42.666;23.344;2023-02-14T08:08:42;95863.53;;;3.83;100.00
3178;BME280;38141;42.666;23.344;2023-02-14T08:11:10;95883.44;;;3.99;100.00
3178;BME280;38141;42.666;23.344;2023-02-14T08:13:37;95835.78;;;3.62;100.00
3178;BME280;38141;42.666;23.344;2023-02-14T08:16:03;95848.88;;;3.72;100.00
3178;BME280;38141;42.666;23.344;2023-02-14T08:18:31;95867.50;;;3.85;100.00
3178;BME280;38141;42.666;23.344;2023-02-14T08:20:58;95835.13;;;3.56;100.00
3178;BME280;38141;42.666;23.344;2023-02-14T08:23:25;95892.81;;;3.79;100.00
3178;BME280;38141;42.666;23.344;2023-02-14T08:25:55;95874.59;;;3.81;100.00
3178;BME280;38141;42.666;23.344;2023-02-14T08:28:23;95864.03;;;3.85;100.00
3178;BME280;38141;42.666;23.344;2023-02-14T08:30:50;95889.72;;;3.94;100.00
3178;BME280;38141;42.666;23.344;2023-02-14T08:33:17;95890.53;;;3.95;100.00
3178;BME280;38141;42.666;23.344;2023-02-14T08:35:44;95879.66;;;4.00;100.00
3178;BME280;38141;42.666;23.344;2023-02-14T08:38:11;95878.09;;;3.99;100.00
3178;BME280;38141;42.666;23.344;2023-02-14T08:40:38;95875.09;;;4.09;100.00
3178;BME280;38141;42.666;23.344;2023-02-14T08:43:07;95877.06;;;4.26;100.00
3178;BME280;38141;42.666;23.344;2023-02-14T08:45:34;95889.34;;;4.35;100.00
3178;BME280;38141;42.666;23.344;2023-02-14T08:48:04;95906.03;;;4.32;100.00
3178;BME280;38141;42.666;23.344;2023-02-14T08:50:31;95871.00;;;3.94;100.00
3178;BME280;38141;42.666;23.344;2023-02-14T08:52:58;95899.84;;;4.15;100.00
3178;BME280;38141;42.666;23.344;2023-02-14T08:55:25;95898.13;;;4.19;100.00
3178;BME280;38141;42.666;23.344;2023-02-14T08:57:54;95889.78;;;4.20;100.00
3178;BME280;38141;42.666;23.344;2023-02-14T09:00:22;95874.94;;;3.97;100.00
3178;BME280;38141;42.666;23.344;2023-02-14T09:02:49;95894.72;;;3.87;100.00
3178;BME280;38141;42.666;23.344;2023-02-14T09:05:17;95867.19;;;3.87;100.00
3178;BME280;38141;42.666;23.344;2023-02-14T09:07:45;95890.09;;;4.19;100.00
3178;BME280;38141;42.666;23.344;2023-02-14T09:10:12;95882.13;;;4.36;100.00
3178;BME280;38141;42.666;23.344;2023-02-14T09:12:40;95824.69;;;3.85;100.00
3178;BME280;38141;42.666;23.344;2023-02-14T09:15:08;95885.91;;;4.52;100.00
3178;BME280;38141;42.666;23.344;2023-02-14T09:17:37;95825.81;;;4.01;100.00
3178;BME280;38141;42.666;23.344;2023-02-14T09:20:05;95861.41;;;4.11;100.00
3178;BME280;38141;42.666;23.344;2023-02-14T09:22:33;95866.81;;;4.36;100.00
3178;BME280;38141;42.666;23.344;2023-02-14T09:24:59;95860.50;;;4.32;100.00
3178;BME280;38141;42.666;23.344;2023-02-14T09:27:27;95838.72;;;3.99;100.00
3178;BME280;38141;42.666;23.344;2023-02-14T09:29:54;95862.56;;;4.27;100.00
3178;BME280;38141;42.666;23.344;2023-02-14T09:32:20;95860.31;;;4.12;100.00
3178;BME280;38141;42.666;23.344;2023-02-14T09:34:49;95876.13;;;4.30;100.00
3178;BME280;38141;42.666;23.344;2023-02-14T09:37:15;95875.78;;;4.23;100.00
3178;BME280;38141;42.666;23.344;2023-02-14T09:40:00;95824.81;;;3.80;100.00
3178;BME280;38141;42.666;23.344;2023-02-14T09:42:38;95852.41;;;3.98;100.00
3178;BME280;38141;42.666;23.344;2023-02-14T09:45:10;95832.88;;;3.89;100.00
3178;BME280;38141;42.666;23.344;2023-02-14T09:47:42;95866.16;;;4.14;100.00
3178;BME280;38141;42.666;23.344;2023-02-14T09:50:21;95863.00;;;4.12;100.00
3178;BME280;38141;42.666;23.344;2023-02-14T09:52:51;95802.59;;;3.63;100.00
3178;BME280;38141;42.666;23.344;2023-02-14T09:55:22;95837.75;;;3.95;100.00
3178;BME280;38141;42.666;23.344;2023-02-14T09:58:00;95838.41;;;4.01;100.00
3178;BME280;38141;42.666;23.344;2023-02-14T10:00:33;95849.13;;;4.01;100.00
3178;BME280;38141;42.666;23.344;2023-02-14T10:03:12;95852.84;;;3.83;100.00
3178;BME280;38141;42.666;23.344;2023-02-14T10:05:47;95843.88;;;3.87;100.00
3178;BME280;38141;42.666;23.344;2023-02-14T10:08:30;95840.94;;;4.06;100.00
3178;BME280;38141;42.666;23.344;2023-02-14T10:11:04;95779.44;;;3.49;100.00
3178;BME280;38141;42.666;23.344;2023-02-14T10:13:36;95847.91;;;4.24;100.00
3178;BME280;38141;42.666;23.344;2023-02-14T10:16:08;95803.16;;;3.99;100.00
3178;BME280;38141;42.666;23.344;2023-02-14T10:18:40;95829.00;;;4.12;100.00
3178;BME280;38141;42.666;23.344;2023-02-14T10:21:23;95813.38;;;3.97;100.00
3178;BME280;38141;42.666;23.344;2023-02-14T10:23:56;95818.44;;;4.07;100.00
3178;BME280;38141;42.666;23.344;2023-02-14T10:26:27;95699.31;;;3.44;100.00
3178;BME280;38141;42.666;23.344;2023-02-14T10:28:56;95841.94;;;4.36;100.00
3178;BME280;38141;42.666;23.344;2023-02-14T10:31:24;95818.44;;;4.24;100.00
3178;BME280;38141;42.666;23.344;2023-02-14T10:33:54;95831.06;;;4.50;100.00
3178;BME280;38141;42.666;23.344;2023-02-14T10:36:46;95685.41;;;3.17;100.00
3178;BME280;38141;42.666;23.344;2023-02-14T10:39:34;95821.59;;;4.18;100.00
3178;BME280;38141;42.666;23.344;2023-02-14T10:42:09;95763.69;;;3.56;100.00
3178;BME280;38141;42.666;23.344;2023-02-14T10:44:46;95783.38;;;3.69;100.00
3178;BME280;38141;42.666;23.344;2023-02-14T10:47:29;95818.28;;;4.03;100.00
3178;BME280;38141;42.666;23.344;2023-02-14T10:50:07;95810.41;;;4.16;100.00
3178;BME280;38141;42.666;23.344;2023-02-14T10:52:44;95833.56;;;4.12;100.00
3178;BME280;38141;42.666;23.344;2023-02-14T10:55:21;95839.72;;;4.21;100.00
3178;BME280;38141;42.666;23.344;2023-02-14T10:57:52;95787.16;;;3.68;100.00
3178;BME280;38141;42.666;23.344;2023-02-14T11:00:23;95829.72;;;3.87;100.00
3178;BME280;38141;42.666;23.344;2023-02-14T11:02:56;95746.84;;;3.47;100.00
3178;BME280;38141;42.666;23.344;2023-02-14T11:05:27;95824.34;;;3.78;100.00
3178;BME280;38141;42.666;23.344;2023-02-14T11:07:58;95794.34;;;4.07;100.00
3178;BME280;38141;42.666;23.344;2023-02-14T11:10:29;95812.72;;;4.00;100.00
3178;BME280;38141;42.666;23.344;2023-02-14T11:12:56;95676.59;;;3.16;100.00
3178;BME280;38141;42.666;23.344;2023-02-14T11:15:25;95808.81;;;4.06;100.00
3178;BME280;38141;42.666;23.344;2023-02-14T11:18:09;95746.22;;;3.59;100.00
3178;BME280;38141;42.666;23.344;2023-02-14T11:20:40;95775.22;;;3.74;100.00
3178;BME280;38141;42.666;23.344;2023-02-14T11:23:18;95790.88;;;4.07;100.00
3178;BME280;38141;42.666;23.344;2023-02-14T11:25:50;95731.78;;;3.77;100.00
3178;BME280;38141;42.666;23.344;2023-02-14T11:28:18;95807.41;;;4.17;100.00
3178;BME280;38141;42.666;23.344;2023-02-14T11:30:46;95805.97;;;4.11;100.00
3178;BME280;38141;42.666;23.344;2023-02-14T11:33:33;95771.34;;;4.06;100.00
3178;BME280;38141;42.666;23.344;2023-02-14T11:36:02;95779.38;;;4.06;100.00
3178;BME280;38141;42.666;23.344;2023-02-14T11:38:33;95785.03;;;4.04;100.00
3178;BME280;38141;42.666;23.344;2023-02-14T11:41:04;95770.69;;;4.00;100.00
3178;BME280;38141;42.666;23.344;2023-02-14T11:43:33;95831.81;;;4.24;100.00
3178;BME280;38141;42.666;23.344;2023-02-14T11:46:09;95751.81;;;3.97;98.35
3178;BME280;38141;42.666;23.344;2023-02-14T11:48:38;95761.88;;;3.91;97.94
3178;BME280;38141;42.666;23.344;2023-02-14T11:51:25;95736.69;;;4.01;95.83
3178;BME280;38141;42.666;23.344;2023-02-14T11:53:55;95715.56;;;3.82;94.53
3178;BME280;38141;42.666;23.344;2023-02-14T11:56:43;95758.44;;;4.25;92.70
3178;BME280;38141;42.666;23.344;2023-02-14T11:59:18;95655.44;;;3.71;91.06
3178;BME280;38141;42.666;23.344;2023-02-14T12:01:47;95749.59;;;4.42;89.25
3178;BME280;38141;42.666;23.344;2023-02-14T12:04:18;95713.06;;;3.94;89.72
3178;BME280;38141;42.666;23.344;2023-02-14T12:06:46;95752.59;;;4.23;92.31
3178;BME280;38141;42.666;23.344;2023-02-14T12:09:25;95751.19;;;4.34;92.09
3178;BME280;38141;42.666;23.344;2023-02-14T12:11:54;95751.81;;;4.40;91.44
3178;BME280;38141;42.666;23.344;2023-02-14T12:14:24;95755.41;;;4.61;90.22
3178;BME280;38141;42.666;23.344;2023-02-14T12:16:57;95745.75;;;4.69;88.69
3178;BME280;38141;42.666;23.344;2023-02-14T12:19:32;95691.63;;;4.29;88.96
3178;BME280;38141;42.666;23.344;2023-02-14T12:22:03;95781.38;;;4.69;88.19
3178;BME280;38141;42.666;23.344;2023-02-14T12:24:34;95736.81;;;4.56;89.47
3178;BME280;38141;42.666;23.344;2023-02-14T12:27:14;95691.00;;;4.40;89.24
3178;BME280;38141;42.666;23.344;2023-02-14T12:29:46;95660.72;;;4.48;87.72
3178;BME280;38141;42.666;23.344;2023-02-14T12:32:20;95719.69;;;4.95;85.50
3178;BME280;38141;42.666;23.344;2023-02-14T12:34:48;95724.00;;;4.79;86.84
3178;BME280;38141;42.666;23.344;2023-02-14T12:37:22;95749.53;;;4.85;87.63
3178;BME280;38141;42.666;23.344;2023-02-14T12:40:11;95741.75;;;4.92;87.22
3178;BME280;38141;42.666;23.344;2023-02-14T12:42:54;95711.88;;;4.64;87.31
3178;BME280;38141;42.666;23.344;2023-02-14T12:45:36;95739.41;;;4.90;86.60
3178;BME280;38141;42.666;23.344;2023-02-14T12:48:18;95740.63;;;5.02;86.41
3178;BME280;38141;42.666;23.344;2023-02-14T12:50:52;95617.06;;;4.48;84.43
3178;BME280;38141;42.666;23.344;2023-02-14T12:53:31;95725.81;;;5.04;85.13
3178;BME280;38141;42.666;23.344;2023-02-14T12:56:08;95675.94;;;4.65;85.22
3178;BME280;38141;42.666;23.344;2023-02-14T12:58:43;95725.94;;;5.08;85.38
3178;BME280;38141;42.666;23.344;2023-02-14T13:01:39;95702.47;;;4.96;85.07
3178;BME280;38141;42.666;23.344;2023-02-14T13:07:21;95730.50;;;5.16;84.60
3178;BME280;38141;42.666;23.344;2023-02-14T13:09:57;95691.38;;;4.68;86.07
3178;BME280;38141;42.666;23.344;2023-02-14T13:12:33;95742.78;;;5.17;86.85
3178;BME280;38141;42.666;23.344;2023-02-14T13:15:10;95720.16;;;4.97;87.38
3178;BME280;38141;42.666;23.344;2023-02-14T13:17:46;95715.28;;;4.82;89.36
3178;BME280;38141;42.666;23.344;2023-02-14T13:20:32;95730.50;;;5.16;89.28
3178;BME280;38141;42.666;23.344;2023-02-14T13:23:05;95707.13;;;5.16;87.61
3178;BME280;38141;42.666;23.344;2023-02-14T13:25:37;95719.44;;;5.17;88.04
3178;BME280;38141;42.666;23.344;2023-02-14T13:28:11;95712.84;;;5.06;89.24
3178;BME280;38141;42.666;23.344;2023-02-14T13:30:39;95713.88;;;4.84;91.88
3178;BME280;38141;42.666;23.344;2023-02-14T13:33:12;95726.34;;;4.80;93.77
3178;BME280;38141;42.666;23.344;2023-02-14T13:35:42;95724.84;;;5.00;91.83
3178;BME280;38141;42.666;23.344;2023-02-14T13:38:11;95722.81;;;4.97;92.45